createdAt,value
2023-01-02T00:01:28.135Z,4.25
2023-01-02T00:03:57.005Z,5.15
2023-01-02T00:06:24.470Z,5.20
2023-01-02T00:08:52.086Z,5.57
2023-01-02T00:11:19.247Z,5.10
2023-01-02T00:13:46.464Z,5.00
2023-01-02T00:16:13.666Z,5.25
2023-01-02T00:18:40.895Z,5.63
2023-01-02T00:21:08.191Z,5.45
2023-01-02T00:23:35.321Z,5.65
2023-01-02T00:26:02.675Z,4.90
2023-01-02T00:28:30.379Z,5.50
2023-01-02T00:30:57.586Z,4.55
2023-01-02T00:33:24.917Z,4.45
2023-01-02T00:35:52.080Z,3.80
2023-01-02T00:38:19.375Z,3.92
2023-01-02T00:40:46.561Z,3.58
2023-01-02T00:43:13.733Z,4.10
2023-01-02T00:45:40.924Z,4.15
2023-01-02T00:48:08.093Z,3.22
2023-01-02T00:50:35.264Z,3.63
2023-01-02T00:53:02.408Z,3.80
2023-01-02T00:55:29.542Z,3.72
2023-01-02T00:57:56.689Z,3.90
2023-01-02T01:00:24.524Z,3.97
2023-01-02T01:02:55.315Z,4.20
2023-01-02T01:05:22.491Z,4.38
2023-01-02T01:07:49.643Z,4.30
2023-01-02T01:10:16.883Z,4.85
2023-01-02T01:12:44.014Z,3.90
2023-01-02T01:15:11.417Z,3.90
2023-01-02T01:17:38.722Z,4.22
2023-01-02T01:20:06.919Z,4.40
2023-01-02T01:22:34.084Z,4.30
2023-01-02T01:25:01.343Z,4.35
2023-01-02T01:27:28.521Z,4.22
2023-01-02T01:29:55.667Z,4.30
2023-01-02T01:32:22.893Z,4.38
2023-01-02T01:34:50.008Z,4.18
2023-01-02T01:37:17.201Z,4.78
2023-01-02T01:39:44.325Z,4.78
2023-01-02T01:42:14.012Z,4.07
2023-01-02T01:44:42.913Z,4.05
2023-01-02T01:47:22.052Z,4.10
2023-01-02T01:49:52.310Z,4.55
2023-01-02T01:52:21.470Z,5.10
2023-01-02T01:54:55.432Z,4.38
2023-01-02T01:57:44.209Z,4.65
2023-01-02T02:00:11.741Z,4.07
2023-01-02T02:02:41.573Z,3.92
2023-01-02T02:05:10.229Z,4.60
2023-01-02T02:07:40.541Z,3.50
2023-01-02T02:10:09.212Z,4.97
2023-01-02T02:12:36.403Z,4.20
2023-01-02T02:15:04.200Z,4.13
2023-01-02T02:17:37.448Z,4.30
2023-01-02T02:20:27.619Z,4.00
2023-01-02T02:23:13.197Z,4.18
2023-01-02T02:25:43.482Z,4.40
2023-01-02T02:28:16.536Z,4.93
2023-01-02T02:30:54.259Z,4.05
2023-01-02T02:33:21.456Z,4.35
2023-01-02T02:36:08.971Z,4.05
2023-01-02T02:38:36.119Z,3.80
2023-01-02T02:41:22.405Z,4.05
2023-01-02T02:44:08.446Z,3.72
2023-01-02T02:46:42.195Z,3.80
2023-01-02T02:49:14.369Z,4.22
2023-01-02T02:51:53.892Z,4.00
2023-01-02T02:54:24.095Z,4.45
2023-01-02T02:56:52.700Z,3.60
2023-01-02T02:59:20.661Z,4.70
2023-01-02T03:01:48.013Z,3.90
2023-01-02T03:04:19.494Z,3.80
2023-01-02T03:07:13.080Z,4.50
2023-01-02T03:09:55.608Z,4.22
2023-01-02T03:12:22.695Z,4.22
2023-01-02T03:14:49.803Z,4.03
2023-01-02T03:17:25.152Z,3.70
2023-01-02T03:19:55.657Z,5.40
2023-01-02T03:22:27.001Z,4.10
2023-01-02T03:24:55.019Z,4.38
2023-01-02T03:27:25.481Z,4.13
2023-01-02T03:29:55.478Z,3.80
2023-01-02T03:32:24.511Z,4.00
2023-01-02T03:34:52.354Z,3.92
2023-01-02T03:37:23.258Z,4.65
2023-01-02T03:39:52.732Z,4.35
2023-01-02T03:42:40.333Z,4.32
2023-01-02T03:45:10.149Z,4.65
2023-01-02T03:47:37.276Z,4.25
2023-01-02T03:50:08.135Z,4.72
2023-01-02T03:52:35.340Z,4.28
2023-01-02T03:55:02.961Z,4.22
2023-01-02T03:57:35.176Z,4.20
2023-01-02T04:00:06.533Z,4.22
2023-01-02T04:02:46.048Z,3.30
2023-01-02T04:05:21.139Z,3.97
2023-01-02T04:10:16.528Z,3.33
2023-01-02T04:12:47.735Z,3.83
2023-01-02T04:15:15.783Z,3.50
2023-01-02T04:17:45.724Z,4.28
2023-01-02T04:20:16.334Z,3.40
2023-01-02T04:22:50.276Z,3.55
2023-01-02T04:25:18.513Z,3.13
2023-01-02T04:27:49.550Z,2.95
2023-01-02T04:30:16.815Z,3.58
2023-01-02T04:32:45.220Z,3.30
2023-01-02T04:35:15.065Z,3.67
2023-01-02T04:37:42.906Z,3.63
2023-01-02T04:40:16.386Z,3.10
2023-01-02T04:42:43.557Z,3.47
2023-01-02T04:45:10.949Z,3.00
2023-01-02T04:47:38.040Z,2.63
2023-01-02T04:50:06.235Z,2.97
2023-01-02T04:52:36.860Z,3.17
2023-01-02T04:55:05.018Z,3.17
2023-01-02T04:57:32.657Z,2.70
2023-01-02T04:59:59.874Z,3.40
2023-01-02T05:02:27.155Z,3.03
2023-01-02T05:04:54.368Z,2.90
2023-01-02T05:07:21.503Z,2.40
2023-01-02T05:09:48.670Z,2.40
2023-01-02T05:12:15.810Z,2.47
2023-01-02T05:14:42.994Z,2.30
2023-01-02T05:17:10.154Z,2.00
2023-01-02T05:19:37.320Z,2.15
2023-01-02T05:22:23.138Z,2.50
2023-01-02T05:24:50.287Z,2.10
2023-01-02T05:27:17.450Z,2.28
2023-01-02T05:29:44.703Z,2.45
2023-01-02T05:32:11.961Z,2.20
2023-01-02T05:34:39.106Z,3.05
2023-01-02T05:37:06.246Z,2.80
2023-01-02T05:39:33.380Z,2.70
2023-01-02T05:42:00.525Z,2.67
2023-01-02T05:44:27.667Z,2.50
2023-01-02T05:46:54.854Z,2.40
2023-01-02T05:49:22.051Z,2.47
2023-01-02T05:51:49.163Z,2.25
2023-01-02T05:54:16.334Z,1.90
2023-01-02T05:56:43.454Z,2.55
2023-01-02T05:59:10.648Z,2.50
2023-01-02T06:01:37.896Z,2.30
2023-01-02T06:04:05.251Z,2.40
2023-01-02T06:06:34.194Z,2.33
2023-01-02T06:09:01.832Z,2.10
2023-01-02T06:11:29.621Z,2.20
2023-01-02T06:13:56.781Z,2.30
2023-01-02T06:16:24.308Z,2.33
2023-01-02T06:18:52.166Z,2.13
2023-01-02T06:21:20.292Z,2.55
2023-01-02T06:23:47.903Z,2.53
2023-01-02T06:26:16.847Z,1.98
2023-01-02T06:28:44.697Z,2.28
2023-01-02T06:31:13.347Z,1.90
2023-01-02T06:33:40.691Z,1.88
2023-01-02T06:36:13.828Z,2.50
2023-01-02T06:38:41.096Z,2.10
2023-01-02T06:41:08.706Z,1.80
2023-01-02T06:43:36.711Z,2.10
2023-01-02T06:46:05.276Z,2.08
2023-01-02T06:48:33.608Z,2.20
2023-01-02T06:51:00.878Z,2.30
2023-01-02T06:53:28.324Z,2.30
2023-01-02T06:55:59.500Z,2.25
2023-01-02T06:58:29.365Z,2.33
2023-01-02T07:00:56.633Z,2.42
2023-01-02T07:03:23.820Z,2.35
2023-01-02T07:05:50.965Z,1.70
2023-01-02T07:08:18.125Z,2.28
2023-01-02T07:10:49.452Z,2.45
2023-01-02T07:13:19.884Z,2.40
2023-01-02T07:15:47.036Z,2.28
2023-01-02T07:18:16.305Z,2.35
2023-01-02T07:20:43.451Z,1.98
2023-01-02T07:23:10.603Z,2.15
2023-01-02T07:25:44.094Z,2.58
2023-01-02T07:28:11.661Z,2.50
2023-01-02T07:30:38.779Z,3.08
2023-01-02T07:33:05.966Z,2.90
2023-01-02T07:35:33.080Z,3.42
2023-01-02T07:38:00.227Z,2.67
2023-01-02T07:40:31.981Z,2.78
2023-01-02T07:42:59.608Z,3.17
2023-01-02T07:45:26.764Z,2.70
2023-01-02T07:47:53.913Z,2.92
2023-01-02T07:50:21.037Z,3.03
2023-01-02T07:52:48.201Z,3.50
2023-01-02T07:55:15.355Z,3.90
2023-01-02T07:57:42.488Z,3.35
2023-01-02T08:00:10.011Z,4.22
2023-01-02T08:02:37.273Z,3.50
2023-01-02T08:05:04.644Z,4.22
2023-01-02T08:07:31.766Z,3.45
2023-01-02T08:09:58.897Z,3.28
2023-01-02T08:12:26.013Z,3.40
2023-01-02T08:14:53.146Z,3.38
2023-01-02T08:17:20.406Z,3.33
2023-01-02T08:19:47.550Z,3.53
2023-01-02T08:22:14.673Z,3.47
2023-01-02T08:24:42.362Z,3.55
2023-01-02T08:27:10.052Z,3.67
2023-01-02T08:29:37.185Z,3.65
2023-01-02T08:32:04.447Z,3.78
2023-01-02T08:34:31.660Z,3.70
2023-01-02T08:36:58.794Z,3.85
2023-01-02T08:39:25.944Z,4.30
2023-01-02T08:41:53.167Z,4.05
2023-01-02T08:44:20.294Z,3.78
2023-01-02T08:46:47.499Z,3.78
2023-01-02T08:49:14.711Z,3.53
2023-01-02T08:51:42.086Z,3.85
2023-01-02T08:54:09.288Z,4.30
2023-01-02T08:56:37.662Z,3.20
2023-01-02T08:59:06.366Z,3.35
2023-01-02T09:01:34.166Z,2.80
2023-01-02T09:04:06.258Z,3.75
2023-01-02T09:06:38.690Z,3.20
2023-01-02T09:09:11.634Z,3.20
2023-01-02T09:11:40.981Z,2.95
2023-01-02T09:14:08.180Z,2.90
2023-01-02T09:16:35.371Z,2.70
2023-01-02T09:19:02.906Z,3.53
2023-01-02T09:21:30.304Z,3.15
2023-01-02T09:23:57.474Z,3.05
2023-01-02T09:26:24.742Z,3.42
2023-01-02T09:28:52.347Z,2.92
2023-01-02T09:31:19.989Z,3.85
2023-01-02T09:33:47.795Z,3.83
2023-01-02T09:36:16.597Z,3.17
2023-01-02T09:38:43.766Z,3.20
2023-01-02T09:41:22.880Z,2.67
2023-01-02T09:43:57.799Z,3.75
2023-01-02T09:48:52.092Z,3.42
2023-01-02T09:51:20.253Z,3.25
2023-01-02T09:53:47.547Z,2.90
2023-01-02T09:56:22.378Z,3.42
2023-01-02T09:58:57.398Z,3.33
2023-01-02T10:01:24.535Z,4.10
2023-01-02T10:04:21.555Z,4.03
2023-01-02T10:06:53.800Z,3.35
2023-01-02T10:09:33.265Z,2.83
2023-01-02T10:12:11.039Z,2.95
2023-01-02T10:14:48.122Z,2.92
2023-01-02T10:17:17.343Z,2.60
2023-01-02T10:19:47.526Z,3.17
2023-01-02T10:22:17.513Z,2.35
2023-01-02T10:25:04.971Z,2.08
2023-01-02T10:27:35.699Z,2.60
2023-01-02T10:30:05.979Z,2.35
2023-01-02T10:32:33.848Z,2.58
2023-01-02T10:35:11.994Z,1.73
2023-01-02T10:37:39.158Z,1.95
2023-01-02T10:40:06.496Z,2.53
2023-01-02T10:42:34.208Z,1.80
2023-01-02T10:45:01.502Z,1.80
2023-01-02T10:47:31.732Z,1.90
2023-01-02T10:49:59.058Z,1.42
2023-01-02T10:52:32.646Z,1.42
2023-01-02T10:55:00.789Z,1.77
2023-01-02T10:57:40.127Z,1.35
2023-01-02T11:00:08.793Z,1.45
2023-01-02T11:02:40.287Z,1.40
2023-01-02T11:05:09.202Z,1.65
2023-01-02T11:07:37.713Z,1.75
2023-01-02T11:10:21.622Z,1.67
2023-01-02T11:12:48.981Z,1.65
2023-01-02T11:15:24.013Z,1.73
2023-01-02T11:17:51.317Z,1.70
2023-01-02T11:20:32.238Z,2.15
2023-01-02T11:23:01.524Z,2.00
2023-01-02T11:25:41.996Z,2.28
2023-01-02T11:28:16.508Z,2.08
2023-01-02T11:30:44.774Z,2.63
2023-01-02T11:33:15.220Z,2.30
2023-01-02T11:36:11.848Z,2.00
2023-01-02T11:38:45.161Z,1.70
2023-01-02T11:41:47.635Z,1.60
2023-01-02T11:44:21.102Z,1.67
2023-01-02T11:46:49.200Z,2.20
2023-01-02T11:49:18.178Z,1.98
2023-01-02T11:51:47.731Z,2.10
2023-01-02T11:54:20.210Z,1.70
2023-01-02T11:56:47.503Z,1.70
2023-01-02T11:59:18.939Z,1.90
2023-01-02T12:01:46.117Z,1.77
2023-01-02T12:04:14.023Z,2.72
2023-01-02T12:06:44.305Z,2.75
2023-01-02T12:09:15.855Z,2.55
2023-01-02T12:12:02.044Z,2.05
2023-01-02T12:14:32.235Z,1.40
2023-01-02T12:17:09.805Z,1.85
2023-01-02T12:19:39.960Z,1.70
2023-01-02T12:22:09.962Z,2.17
2023-01-02T12:24:46.484Z,2.50
2023-01-02T12:27:31.818Z,1.70
2023-01-02T12:32:29.043Z,1.67
2023-01-02T12:35:02.186Z,1.70
2023-01-02T12:37:48.733Z,2.13
2023-01-02T12:40:27.299Z,1.70
2023-01-02T12:43:07.149Z,1.63
2023-01-02T12:45:40.141Z,1.70
2023-01-02T12:48:13.491Z,1.75
2023-01-02T12:50:59.591Z,2.00
2023-01-02T12:53:45.732Z,1.85
2023-01-02T12:56:23.482Z,1.70
2023-01-02T12:59:10.176Z,1.60
2023-01-02T13:02:00.519Z,1.40
2023-01-02T13:04:40.380Z,1.70
2023-01-02T13:07:27.873Z,1.45
2023-01-02T13:09:57.123Z,1.30
2023-01-02T13:12:26.245Z,1.30
2023-01-02T13:15:13.688Z,1.35
2023-01-02T13:17:57.055Z,1.40
2023-01-02T13:20:24.250Z,1.10
2023-01-02T13:23:00.554Z,1.10
2023-01-02T13:25:30.499Z,1.48
2023-01-02T13:27:58.691Z,1.02
2023-01-02T13:30:35.029Z,1.23
2023-01-02T13:33:03.332Z,1.25
2023-01-02T13:35:33.922Z,1.48
2023-01-02T13:38:03.400Z,1.55
2023-01-02T13:40:33.369Z,1.30
2023-01-02T13:43:03.464Z,1.77
2023-01-02T13:45:38.065Z,1.40
2023-01-02T13:48:08.160Z,1.60
2023-01-02T13:50:36.639Z,1.50
2023-01-02T13:53:13.004Z,1.52
2023-01-02T13:55:40.125Z,1.38
2023-01-02T13:58:14.864Z,1.48
2023-01-02T14:00:42.072Z,1.17
2023-01-02T14:03:21.312Z,1.80
2023-01-02T14:06:00.680Z,2.30
2023-01-02T14:08:30.918Z,1.80
2023-01-02T14:11:00.449Z,1.20
2023-01-02T14:13:35.648Z,1.50
2023-01-02T14:16:06.082Z,1.20
2023-01-02T14:18:33.207Z,1.25
2023-01-02T14:21:00.403Z,1.60
2023-01-02T14:23:30.442Z,1.73
2023-01-02T14:25:57.690Z,1.20
2023-01-02T14:28:26.920Z,2.08
2023-01-02T14:30:54.749Z,1.50
2023-01-02T14:33:35.593Z,1.50
2023-01-02T14:36:08.134Z,1.60
2023-01-02T14:38:53.013Z,1.30
2023-01-02T14:41:57.727Z,2.13
2023-01-02T14:44:25.199Z,1.10
2023-01-02T14:46:52.803Z,1.17
2023-01-02T14:49:27.069Z,1.00
2023-01-02T14:52:00.133Z,1.60
2023-01-02T14:54:30.193Z,1.13
2023-01-02T14:56:59.229Z,1.33
2023-01-02T14:59:28.271Z,1.40
2023-01-02T15:01:57.804Z,1.58
2023-01-02T15:04:38.846Z,1.92
2023-01-02T15:07:24.906Z,1.70
2023-01-02T15:10:13.497Z,3.30
2023-01-02T15:13:03.227Z,2.65
2023-01-02T15:15:36.281Z,2.10
2023-01-02T15:18:12.051Z,3.30
2023-01-02T15:20:39.928Z,2.03
2023-01-02T15:23:07.133Z,2.65
2023-01-02T15:25:41.332Z,2.53
2023-01-02T15:28:22.781Z,2.57
2023-01-02T15:30:59.014Z,2.97
2023-01-02T15:33:27.632Z,3.40
2023-01-02T15:35:57.153Z,3.53
2023-01-02T15:38:24.560Z,4.00
2023-01-02T15:40:51.899Z,3.85
2023-01-02T15:43:37.571Z,3.58
2023-01-02T15:46:05.337Z,3.28
2023-01-02T15:48:33.097Z,3.38
2023-01-02T15:51:00.586Z,3.40
2023-01-02T15:53:29.133Z,2.78
2023-01-02T15:55:56.928Z,2.25
2023-01-02T15:58:25.439Z,2.40
2023-01-02T16:01:11.696Z,2.30
2023-01-02T16:04:01.175Z,2.30
2023-01-02T16:06:32.087Z,2.63
2023-01-02T16:09:00.523Z,2.55
2023-01-02T16:11:27.981Z,2.55
2023-01-02T16:14:13.592Z,2.40
2023-01-02T16:16:40.782Z,1.98
2023-01-02T16:19:15.035Z,2.28
2023-01-02T16:21:42.235Z,2.20
2023-01-02T16:24:10.516Z,2.17
2023-01-02T16:26:41.502Z,2.28
2023-01-02T16:29:14.269Z,2.72
2023-01-02T16:31:55.144Z,2.78
2023-01-02T16:34:28.858Z,2.45
2023-01-02T16:37:15.068Z,2.20
2023-01-02T16:39:42.278Z,3.22
2023-01-02T16:42:28.116Z,2.40
2023-01-02T16:44:56.020Z,2.67
2023-01-02T16:47:24.583Z,3.15
2023-01-02T16:49:51.830Z,2.42
2023-01-02T16:52:18.953Z,2.00
2023-01-02T16:54:49.284Z,1.88
2023-01-02T16:57:22.420Z,2.30
2023-01-02T16:59:49.575Z,2.10
2023-01-02T17:02:16.837Z,2.10
2023-01-02T17:04:44.064Z,2.25
2023-01-02T17:07:13.545Z,2.30
2023-01-02T17:09:44.215Z,2.10
2023-01-02T17:12:12.644Z,2.40
2023-01-02T17:14:40.371Z,2.30
2023-01-02T17:17:07.561Z,2.85
2023-01-02T17:19:34.729Z,3.17
2023-01-02T17:22:01.957Z,3.28
2023-01-02T17:24:29.189Z,4.80
2023-01-02T17:26:56.351Z,4.10
2023-01-02T17:29:23.534Z,3.85
2023-01-02T17:31:50.734Z,3.70
2023-01-02T17:34:17.908Z,4.07
2023-01-02T17:36:45.466Z,4.20
2023-01-02T17:39:12.700Z,4.80
2023-01-02T17:41:39.910Z,3.72
2023-01-02T17:44:07.104Z,4.22
2023-01-02T17:47:15.331Z,3.75
2023-01-02T17:49:21.436Z,4.10
2023-01-02T17:51:48.845Z,4.47
2023-01-02T17:54:16.033Z,4.05
2023-01-02T17:56:43.282Z,4.00
2023-01-02T17:59:10.571Z,4.28
2023-01-02T18:01:37.878Z,3.90
2023-01-02T18:04:05.317Z,3.70
2023-01-02T18:06:32.446Z,4.70
2023-01-02T18:08:59.596Z,4.05
2023-01-02T18:11:26.804Z,3.97
2023-01-02T18:13:55.137Z,4.10
2023-01-02T18:16:24.094Z,3.40
2023-01-02T18:18:53.215Z,3.55
2023-01-02T18:21:22.186Z,3.13
2023-01-02T18:23:50.946Z,3.25
2023-01-02T18:26:18.816Z,3.20
2023-01-02T18:28:50.044Z,2.72
2023-01-02T18:31:19.743Z,3.10
2023-01-02T18:33:47.330Z,2.88
2023-01-02T18:36:22.400Z,2.70
2023-01-02T18:38:50.671Z,2.35
2023-01-02T18:41:23.029Z,2.17
2023-01-02T18:43:53.944Z,1.70
2023-01-02T18:47:03.807Z,2.22
2023-01-02T18:49:23.740Z,2.15
2023-01-02T18:52:13.585Z,2.20
2023-01-02T18:54:48.287Z,2.47
2023-01-02T18:57:19.712Z,2.15
2023-01-02T18:59:47.513Z,2.35
2023-01-02T19:02:35.186Z,2.40
2023-01-02T19:05:02.508Z,2.38
2023-01-02T19:07:35.301Z,3.65
2023-01-02T19:10:08.690Z,2.70
2023-01-02T19:13:01.601Z,3.00
2023-01-02T19:15:31.990Z,2.60
2023-01-02T19:18:18.037Z,2.90
2023-01-02T19:21:04.218Z,3.92
2023-01-02T19:23:32.752Z,2.90
2023-01-02T19:26:14.991Z,2.75
2023-01-02T19:28:57.892Z,2.63
2023-01-02T19:31:25.437Z,2.67
2023-01-02T19:33:56.556Z,2.38
2023-01-02T19:36:25.794Z,2.47
2023-01-02T19:38:53.070Z,2.60
2023-01-02T19:41:40.262Z,4.10
2023-01-02T19:44:07.510Z,3.58
2023-01-02T19:46:34.834Z,2.65
2023-01-02T19:49:02.045Z,2.88
2023-01-02T19:51:32.169Z,2.83
2023-01-02T19:54:04.043Z,2.83
2023-01-02T19:56:31.762Z,2.22
2023-01-02T19:58:58.976Z,2.70
2023-01-02T20:01:26.238Z,2.60
2023-01-02T20:03:53.458Z,2.85
2023-01-02T20:06:20.567Z,2.80
2023-01-02T20:08:47.717Z,2.60
2023-01-02T20:11:33.714Z,2.85
2023-01-02T20:14:00.877Z,2.20
2023-01-02T20:16:29.809Z,2.95
2023-01-02T20:18:57.216Z,2.88
2023-01-02T20:21:25.619Z,2.70
2023-01-02T20:23:56.384Z,3.05
2023-01-02T20:26:23.880Z,2.72
2023-01-02T20:28:51.184Z,2.45
2023-01-02T20:31:18.426Z,2.80
2023-01-02T20:33:45.650Z,2.58
2023-01-02T20:36:13.965Z,3.38
2023-01-02T20:38:41.563Z,2.75
2023-01-02T20:41:08.765Z,2.78
2023-01-02T20:43:35.925Z,2.83
2023-01-02T20:46:03.126Z,2.97
2023-01-02T20:48:32.409Z,2.42
2023-01-02T20:50:59.721Z,2.92
2023-01-02T20:53:26.896Z,3.00
2023-01-02T20:55:54.093Z,3.05
2023-01-02T20:58:21.460Z,3.30
2023-01-02T21:00:48.717Z,3.38
2023-01-02T21:03:16.150Z,2.88
2023-01-02T21:05:43.431Z,3.55
2023-01-02T21:08:10.897Z,2.92
2023-01-02T21:10:38.110Z,3.13
2023-01-02T21:13:08.051Z,3.75
2023-01-02T21:15:56.174Z,3.97
2023-01-02T21:18:28.120Z,3.88
2023-01-02T21:20:56.406Z,3.35
2023-01-02T21:23:24.579Z,3.70
2023-01-02T21:25:52.118Z,3.72
2023-01-02T21:28:20.118Z,3.60
2023-01-02T21:30:47.731Z,3.35
2023-01-02T21:33:16.278Z,4.18
2023-01-02T21:35:44.117Z,3.05
2023-01-02T21:38:11.610Z,3.28
2023-01-02T21:40:39.263Z,2.75
2023-01-02T21:43:06.583Z,2.88
2023-01-02T21:45:33.778Z,2.80
2023-01-02T21:48:00.963Z,2.50
2023-01-02T21:50:28.395Z,2.65
2023-01-02T21:52:56.316Z,2.50
2023-01-02T21:55:23.948Z,2.65
2023-01-02T22:00:39.427Z,2.40
2023-01-02T22:03:06.733Z,2.80
2023-01-02T22:05:34.019Z,2.25
2023-01-02T22:08:01.290Z,2.20
2023-01-02T22:10:28.596Z,2.00
2023-01-02T22:12:55.819Z,2.38
2023-01-02T22:15:23.040Z,1.95
2023-01-02T22:17:50.263Z,2.45
2023-01-02T22:20:17.467Z,2.60
2023-01-02T22:22:44.703Z,2.45
2023-01-02T22:25:11.916Z,2.30
2023-01-02T22:27:39.159Z,2.67
2023-01-02T22:30:20.889Z,2.75
2023-01-02T22:32:49.568Z,2.05
2023-01-02T22:35:16.814Z,2.08
2023-01-02T22:37:43.951Z,1.92
2023-01-02T22:40:11.623Z,2.35
2023-01-02T22:43:03.225Z,2.55
2023-01-02T22:45:37.357Z,1.92
2023-01-02T22:48:06.592Z,2.00
2023-01-02T22:50:40.740Z,2.50
2023-01-02T22:53:10.765Z,2.57
2023-01-02T22:55:37.933Z,2.72
2023-01-02T22:58:06.834Z,2.20
2023-01-02T23:00:34.011Z,2.15
2023-01-02T23:03:01.153Z,2.40
2023-01-02T23:05:28.316Z,2.70
2023-01-02T23:07:55.495Z,2.30
2023-01-02T23:10:22.697Z,2.30
2023-01-02T23:12:49.834Z,2.67
2023-01-02T23:15:17.027Z,2.10
2023-01-02T23:18:02.915Z,2.20
2023-01-02T23:20:30.108Z,2.95
2023-01-02T23:22:57.334Z,2.30
2023-01-02T23:25:24.606Z,1.85
2023-01-02T23:27:52.122Z,1.80
2023-01-02T23:30:19.515Z,2.20
2023-01-02T23:32:46.748Z,2.05
2023-01-02T23:35:13.982Z,1.73
2023-01-02T23:37:41.250Z,2.00
2023-01-02T23:40:08.817Z,2.00
2023-01-02T23:42:35.962Z,1.77
2023-01-02T23:45:03.327Z,1.80
2023-01-02T23:47:30.526Z,2.00
2023-01-02T23:49:57.702Z,1.70
2023-01-02T23:52:24.838Z,2.28
2023-01-02T23:54:52.071Z,1.90
2023-01-02T23:57:19.228Z,1.83
2023-01-02T23:59:46.400Z,2.00
